Granite Quarry, North Carolina
Current Conditions -  °F | °C
As of 4:15 AM on Monday 22 Dec 2014 (Local Time) from KRUQ Reporting Station
Drizzle Drizzle  
Wind Chill: -1°   Ceiling: 600
Heat Index:   Visibility: 4mi
Dew Point:   Wind: 9mph
Humidity: 98%   Direction: 20°NNE
Pressure: 30.13"   Gusts: NA
Location:  35.61°N, 80.45°W
Report Text: KRUQ 220915Z AUTO 02008KT 4SM DZ OVC006 03/03 A3013 RMK AO2 P0001 T00300027
Loading
Personal Weather Stations






























Interactive Weather Map New forecast layout! Learn more

10-Day Weather Forecast

Advertisements
Track Severe Weather on mobile